createdAt,value
2019-05-20T00:02:02.684Z,24.47
2019-05-20T00:04:33.814Z,23.93
2019-05-20T00:07:04.666Z,21.33
2019-05-20T00:09:35.079Z,23.57
2019-05-20T00:12:05.821Z,23.83
2019-05-20T00:14:36.235Z,23.60
2019-05-20T00:17:06.665Z,23.70
2019-05-20T00:19:37.003Z,23.20
2019-05-20T00:22:07.417Z,22.40
2019-05-20T00:24:38.371Z,21.90
2019-05-20T00:27:08.708Z,22.83
2019-05-20T00:29:39.127Z,23.40
2019-05-20T00:32:09.495Z,22.43
2019-05-20T00:34:40.346Z,23.93
2019-05-20T00:37:10.781Z,24.37
2019-05-20T00:40:00.611Z,22.77
2019-05-20T00:42:30.983Z,22.83
2019-05-20T00:45:01.436Z,23.47
2019-05-20T00:47:31.870Z,23.27
2019-05-20T00:50:03.123Z,24.67
2019-05-20T00:52:34.382Z,23.40
2019-05-20T00:55:07.215Z,23.60
2019-05-20T00:57:37.842Z,24.83
2019-05-20T01:00:08.532Z,24.07
2019-05-20T01:02:38.864Z,23.50
2019-05-20T01:05:09.618Z,25.43
2019-05-20T01:07:40.007Z,25.60
2019-05-20T01:10:10.355Z,24.03
2019-05-20T01:12:40.990Z,23.87
2019-05-20T01:15:11.412Z,24.00
2019-05-20T01:17:41.854Z,25.53
2019-05-20T01:20:12.744Z,23.57
2019-05-20T01:22:43.093Z,24.30
2019-05-20T01:25:14.275Z,25.37
2019-05-20T01:27:45.319Z,23.40
2019-05-20T01:30:16.121Z,25.43
2019-05-20T01:32:46.817Z,24.10
2019-05-20T01:35:17.386Z,23.67
2019-05-20T01:37:47.798Z,26.03
2019-05-20T01:40:18.200Z,24.80
2019-05-20T01:42:48.563Z,24.77
2019-05-20T01:45:18.947Z,24.00
2019-05-20T01:47:49.368Z,25.30
2019-05-20T01:50:19.803Z,26.30
2019-05-20T01:52:50.178Z,24.90
2019-05-20T01:55:20.590Z,25.37
2019-05-20T01:57:51.460Z,26.00
2019-05-20T02:00:22.439Z,23.30
2019-05-20T02:02:53.598Z,25.00
2019-05-20T02:05:24.339Z,24.43
2019-05-20T02:07:55.088Z,24.80
2019-05-20T02:10:25.475Z,25.50
2019-05-20T02:12:56.188Z,25.13
2019-05-20T02:15:28.217Z,25.07
2019-05-20T02:17:58.605Z,25.87
2019-05-20T02:20:29.290Z,26.67
2019-05-20T02:23:15.339Z,25.20
2019-05-20T02:25:49.554Z,25.07
2019-05-20T02:28:19.895Z,25.10
2019-05-20T02:30:50.295Z,27.13
2019-05-20T02:33:20.814Z,27.83
2019-05-20T02:35:51.177Z,28.10
2019-05-20T02:38:21.539Z,27.53
2019-05-20T02:40:52.295Z,30.10
2019-05-20T02:43:22.691Z,26.50
2019-05-20T02:45:53.036Z,27.03
2019-05-20T02:48:24.143Z,28.80
2019-05-20T02:50:54.510Z,28.07
2019-05-20T02:53:25.194Z,28.60
2019-05-20T02:55:56.092Z,29.57
2019-05-20T02:58:26.906Z,28.17
2019-05-20T03:00:57.253Z,26.60
2019-05-20T03:03:27.925Z,28.87
2019-05-20T03:05:58.362Z,28.30
2019-05-20T03:08:28.703Z,29.60
2019-05-20T03:10:59.416Z,27.10
2019-05-20T03:13:30.169Z,27.77
2019-05-20T03:16:00.564Z,26.80
2019-05-20T03:18:31.021Z,26.77
2019-05-20T03:21:01.423Z,27.03
2019-05-20T03:23:31.791Z,26.27
2019-05-20T03:26:02.597Z,27.10
2019-05-20T03:28:52.789Z,26.53
2019-05-20T03:31:23.150Z,26.93
2019-05-20T03:33:53.587Z,28.23
2019-05-20T03:36:24.476Z,28.00
2019-05-20T03:38:54.929Z,27.67
2019-05-20T03:41:25.656Z,29.10
2019-05-20T03:43:56.005Z,28.00
2019-05-20T03:46:26.375Z,27.00
2019-05-20T03:48:56.816Z,26.30
2019-05-20T03:51:27.208Z,27.77
2019-05-20T03:53:57.624Z,26.90
2019-05-20T03:56:27.980Z,25.77
2019-05-20T03:58:58.354Z,27.70
2019-05-20T04:01:28.761Z,27.53
2019-05-20T04:03:59.186Z,26.67
2019-05-20T04:06:29.552Z,26.50
2019-05-20T04:09:00.341Z,25.30
2019-05-20T04:11:30.768Z,26.17
2019-05-20T04:14:01.200Z,27.90
2019-05-20T04:16:32.240Z,26.13
2019-05-20T04:19:03.019Z,26.30
2019-05-20T04:21:33.696Z,25.47
2019-05-20T04:24:04.967Z,26.30
2019-05-20T04:26:35.474Z,25.80
2019-05-20T04:29:05.817Z,24.83
2019-05-20T04:31:36.195Z,24.30
2019-05-20T04:34:06.963Z,25.00
2019-05-20T04:36:37.506Z,25.10
2019-05-20T04:39:07.879Z,23.80
2019-05-20T04:41:38.636Z,23.87
2019-05-20T04:44:09.004Z,25.67
2019-05-20T04:46:39.382Z,25.00
2019-05-20T04:49:09.759Z,23.00
2019-05-20T04:51:40.103Z,23.63
2019-05-20T04:54:10.521Z,24.27
2019-05-20T04:56:40.908Z,23.73
2019-05-20T04:59:11.302Z,22.50
2019-05-20T05:01:41.687Z,23.77
2019-05-20T05:04:12.100Z,23.40
2019-05-20T05:06:42.491Z,24.67
2019-05-20T05:09:15.616Z,22.90
2019-05-20T05:11:45.210Z,21.73
2019-05-20T05:14:16.057Z,21.70
2019-05-20T05:16:46.419Z,22.13
2019-05-20T05:19:36.386Z,21.07
2019-05-20T05:22:06.754Z,21.60
2019-05-20T05:24:37.525Z,20.20
2019-05-20T05:27:08.250Z,18.67
2019-05-20T05:29:38.990Z,18.70
2019-05-20T05:32:09.732Z,19.97
2019-05-20T05:34:40.470Z,19.70
2019-05-20T05:37:10.822Z,19.40
2019-05-20T05:39:41.180Z,19.07
2019-05-20T05:42:11.954Z,18.60
2019-05-20T05:44:42.318Z,19.50
2019-05-20T05:47:13.116Z,18.97
2019-05-20T05:49:43.481Z,19.20
2019-05-20T05:52:14.191Z,18.97
2019-05-20T05:54:44.633Z,20.33
2019-05-20T05:57:14.967Z,18.70
2019-05-20T05:59:45.671Z,18.20
2019-05-20T06:02:16.314Z,18.70
2019-05-20T06:04:46.704Z,18.70
2019-05-20T06:07:17.096Z,18.17
2019-05-20T06:09:47.861Z,17.40
2019-05-20T06:12:18.251Z,18.10
2019-05-20T06:14:48.617Z,17.73
2019-05-20T06:17:18.963Z,16.40
2019-05-20T06:19:49.834Z,16.50
2019-05-20T06:22:20.186Z,17.20
2019-05-20T06:24:50.871Z,17.33
2019-05-20T06:27:22.246Z,16.53
2019-05-20T06:29:52.780Z,16.23
2019-05-20T06:32:23.460Z,17.00
2019-05-20T06:34:54.061Z,17.30
2019-05-20T06:37:26.149Z,16.30
2019-05-20T06:39:56.885Z,15.77
2019-05-20T06:42:27.260Z,14.87
2019-05-20T06:44:58.027Z,15.00
2019-05-20T06:47:28.445Z,13.57
2019-05-20T06:49:58.837Z,12.93
2019-05-20T06:52:35.950Z,15.10
2019-05-20T06:55:02.006Z,13.40
2019-05-20T06:57:32.709Z,14.03
2019-05-20T07:00:06.007Z,13.60
2019-05-20T07:02:36.818Z,12.13
2019-05-20T07:05:28.593Z,12.07
2019-05-20T07:08:01.290Z,12.63
2019-05-20T07:10:32.082Z,11.97
2019-05-20T07:13:02.980Z,12.03
2019-05-20T07:15:33.747Z,12.40
2019-05-20T07:18:04.099Z,11.97
2019-05-20T07:20:34.859Z,11.43
2019-05-20T07:23:05.268Z,10.43
2019-05-20T07:25:35.640Z,12.10
2019-05-20T07:28:06.004Z,12.33
2019-05-20T07:30:36.418Z,10.77
2019-05-20T07:33:06.794Z,10.40
2019-05-20T07:35:57.692Z,11.07
2019-05-20T07:38:28.085Z,10.20
2019-05-20T07:40:58.447Z,12.07
2019-05-20T07:43:28.817Z,10.03
2019-05-20T07:45:59.522Z,9.70
2019-05-20T07:48:30.083Z,10.53
2019-05-20T07:51:00.722Z,9.93
2019-05-20T07:53:31.110Z,9.30
2019-05-20T07:56:15.523Z,9.90
2019-05-20T07:58:50.177Z,9.93
2019-05-20T08:01:20.545Z,9.20
2019-05-20T08:03:51.265Z,8.80
2019-05-20T08:06:21.683Z,8.83
2019-05-20T08:08:52.301Z,9.17
2019-05-20T08:11:22.715Z,9.40
2019-05-20T08:13:53.437Z,9.27
2019-05-20T08:16:24.200Z,7.90
2019-05-20T08:18:54.544Z,8.67
2019-05-20T08:21:25.561Z,7.47
2019-05-20T08:23:56.327Z,7.60
2019-05-20T08:26:26.758Z,9.20
2019-05-20T08:28:57.157Z,8.30
2019-05-20T08:31:27.489Z,8.60
2019-05-20T08:33:57.977Z,7.80
2019-05-20T08:36:28.709Z,6.73
2019-05-20T08:38:59.721Z,7.40
2019-05-20T08:41:30.204Z,8.10
2019-05-20T08:44:00.589Z,6.90
2019-05-20T08:46:30.973Z,7.30
2019-05-20T08:49:01.354Z,7.13
2019-05-20T08:51:31.952Z,7.90
2019-05-20T08:54:02.286Z,7.07
2019-05-20T08:56:32.704Z,8.50
2019-05-20T08:59:03.053Z,7.00
2019-05-20T09:01:33.457Z,7.30
2019-05-20T09:04:04.360Z,6.43
2019-05-20T09:06:34.730Z,7.53
2019-05-20T09:09:07.423Z,6.83
2019-05-20T09:11:38.040Z,7.43
2019-05-20T09:14:08.448Z,6.57
2019-05-20T09:16:39.482Z,7.10
2019-05-20T09:19:09.973Z,6.73
2019-05-20T09:21:40.360Z,7.47
2019-05-20T09:24:10.699Z,7.57
2019-05-20T09:26:41.052Z,7.47
2019-05-20T09:29:11.739Z,6.87
2019-05-20T09:31:42.875Z,6.50
2019-05-20T09:34:13.508Z,7.00
2019-05-20T09:36:45.111Z,6.87
2019-05-20T09:39:15.911Z,6.37
2019-05-20T09:41:46.953Z,6.93
2019-05-20T09:44:17.340Z,6.63
2019-05-20T09:46:47.798Z,5.93
2019-05-20T09:49:18.322Z,6.80
2019-05-20T09:51:48.677Z,6.60
2019-05-20T09:54:19.067Z,6.50
2019-05-20T09:56:49.408Z,6.33
2019-05-20T09:59:19.828Z,7.00
2019-05-20T10:01:50.539Z,6.47
2019-05-20T10:04:20.851Z,6.13
2019-05-20T10:06:51.309Z,6.40
2019-05-20T10:09:22.005Z,6.50
2019-05-20T10:11:52.458Z,6.57
2019-05-20T10:14:23.060Z,6.37
2019-05-20T10:16:53.446Z,6.67
2019-05-20T10:19:24.082Z,6.10
2019-05-20T10:21:54.497Z,5.97
2019-05-20T10:24:24.869Z,6.93
2019-05-20T10:26:55.939Z,6.60
2019-05-20T10:29:27.156Z,6.50
2019-05-20T10:31:57.549Z,6.10
2019-05-20T10:34:27.913Z,6.17
2019-05-20T10:36:59.063Z,5.20
2019-05-20T10:39:29.765Z,5.93
2019-05-20T10:42:00.098Z,5.40
2019-05-20T10:44:30.779Z,5.93
2019-05-20T10:47:01.460Z,6.17
2019-05-20T10:49:31.797Z,5.13
2019-05-20T10:52:02.187Z,5.23
2019-05-20T10:54:33.450Z,5.60
2019-05-20T10:57:03.876Z,5.17
2019-05-20T10:59:34.290Z,5.07
2019-05-20T11:02:05.357Z,5.77
2019-05-20T11:04:35.770Z,5.50
2019-05-20T11:07:06.118Z,5.77
2019-05-20T11:09:36.446Z,6.00
2019-05-20T11:12:06.855Z,5.33
2019-05-20T11:14:37.764Z,5.67
2019-05-20T11:17:08.157Z,5.67
2019-05-20T11:19:38.475Z,5.30
2019-05-20T11:22:09.156Z,5.50
2019-05-20T11:24:39.525Z,5.83
2019-05-20T11:27:09.873Z,4.60
2019-05-20T11:29:40.664Z,4.90
2019-05-20T11:32:11.110Z,4.80
2019-05-20T11:34:41.854Z,4.30
2019-05-20T11:37:12.246Z,5.03
2019-05-20T11:39:42.621Z,5.00
2019-05-20T11:42:13.051Z,4.67
2019-05-20T11:44:43.445Z,5.00
2019-05-20T11:47:13.801Z,4.30
2019-05-20T11:49:44.148Z,4.97
2019-05-20T11:52:14.528Z,4.93
2019-05-20T11:54:45.257Z,4.87
2019-05-20T11:57:15.609Z,5.10
2019-05-20T11:59:45.934Z,6.10
2019-05-20T12:02:16.356Z,5.30
2019-05-20T12:04:46.761Z,5.17
2019-05-20T12:07:17.210Z,5.93
2019-05-20T12:09:49.936Z,6.70
2019-05-20T12:12:19.613Z,6.83
2019-05-20T12:14:52.769Z,6.60
2019-05-20T12:17:23.497Z,6.70
2019-05-20T12:19:54.297Z,7.70
2019-05-20T12:22:24.922Z,7.03
2019-05-20T12:24:55.329Z,6.80
2019-05-20T12:27:26.010Z,7.60
2019-05-20T12:29:56.373Z,6.83
2019-05-20T12:32:26.939Z,6.70
2019-05-20T12:34:57.258Z,7.23
2019-05-20T12:37:27.586Z,6.50
2019-05-20T12:40:07.182Z,8.00
2019-05-20T12:42:30.100Z,6.87
2019-05-20T12:45:00.460Z,7.03
2019-05-20T12:47:31.178Z,6.53
2019-05-20T12:50:01.517Z,6.60
2019-05-20T12:52:31.882Z,6.47
2019-05-20T12:55:07.752Z,6.57
2019-05-20T12:57:34.801Z,6.80
2019-05-20T13:00:12.003Z,6.00
2019-05-20T13:02:45.475Z,6.70
2019-05-20T13:05:16.213Z,8.07
2019-05-20T13:07:46.871Z,7.10
2019-05-20T13:10:28.817Z,7.15
2019-05-20T13:12:49.271Z,7.63
2019-05-20T13:15:19.841Z,7.70
2019-05-20T13:17:50.290Z,8.10
2019-05-20T13:20:20.687Z,8.80
2019-05-20T13:22:51.154Z,7.70
2019-05-20T13:25:22.191Z,7.17
2019-05-20T13:27:56.302Z,8.03
2019-05-20T13:30:26.816Z,7.60
2019-05-20T13:32:57.878Z,7.77
2019-05-20T13:35:28.285Z,8.40
2019-05-20T13:37:58.641Z,7.40
2019-05-20T13:40:45.101Z,8.00
2019-05-20T13:43:01.126Z,8.00
2019-05-20T13:45:31.809Z,8.30
2019-05-20T13:48:02.763Z,7.90
2019-05-20T13:50:33.389Z,8.00
2019-05-20T13:53:04.107Z,8.43
2019-05-20T13:55:34.711Z,7.63
2019-05-20T13:58:05.084Z,7.53
2019-05-20T14:00:35.454Z,7.57
2019-05-20T14:03:05.791Z,7.57
2019-05-20T14:05:37.043Z,8.23
2019-05-20T14:08:07.450Z,7.97
2019-05-20T14:10:37.850Z,8.93
2019-05-20T14:13:08.529Z,8.57
2019-05-20T14:15:38.888Z,9.03
2019-05-20T14:18:09.265Z,8.87
2019-05-20T14:20:39.699Z,8.70
2019-05-20T14:23:10.149Z,8.00
2019-05-20T14:25:40.550Z,8.63
2019-05-20T14:28:10.936Z,8.10
2019-05-20T14:30:41.305Z,10.33
2019-05-20T14:33:11.714Z,9.70
2019-05-20T14:35:42.402Z,10.47
2019-05-20T14:38:12.899Z,10.30
2019-05-20T14:40:44.179Z,10.30
2019-05-20T14:43:14.575Z,11.40
2019-05-20T14:45:45.409Z,10.50
2019-05-20T14:48:16.001Z,11.40
2019-05-20T14:50:46.446Z,12.43
2019-05-20T14:53:16.833Z,11.90
2019-05-20T14:55:47.204Z,13.30
2019-05-20T14:58:17.578Z,14.03
2019-05-20T15:00:47.965Z,14.53
2019-05-20T15:20:55.233Z,16.70
2019-05-20T15:23:25.992Z,13.10
2019-05-20T15:27:03.870Z,6.10
2019-05-20T15:30:07.455Z,2.87
2019-05-20T15:32:37.805Z,2.23
2019-05-20T15:35:08.359Z,3.23
2019-05-20T15:37:39.092Z,4.40
2019-05-20T15:40:09.470Z,4.20
2019-05-20T15:42:39.798Z,4.80
2019-05-20T15:45:10.463Z,3.37
2019-05-20T15:47:41.535Z,5.50
2019-05-20T15:50:12.273Z,5.83
2019-05-20T15:52:43.102Z,5.30
2019-05-20T15:55:14.151Z,4.33
2019-05-20T15:57:44.926Z,4.57
2019-05-20T16:00:16.478Z,6.23
2019-05-20T16:02:46.822Z,5.03
2019-05-20T16:05:17.232Z,4.60
2019-05-20T16:07:47.636Z,4.87
2019-05-20T16:10:18.266Z,4.33
2019-05-20T16:12:48.619Z,5.07
2019-05-20T16:15:19.193Z,4.63
2019-05-20T16:17:49.632Z,4.60
2019-05-20T16:20:20.382Z,5.10
2019-05-20T16:22:51.170Z,5.23
2019-05-20T16:25:21.499Z,5.00
2019-05-20T16:27:52.225Z,5.27
2019-05-20T16:30:22.917Z,6.03
2019-05-20T16:32:53.326Z,5.40
2019-05-20T16:35:23.687Z,4.93
2019-05-20T16:37:54.924Z,6.53
2019-05-20T16:40:25.546Z,6.30
2019-05-20T16:42:56.176Z,6.07
2019-05-20T16:45:26.934Z,6.80
2019-05-20T16:47:57.286Z,7.03
2019-05-20T16:50:28.295Z,7.00
2019-05-20T16:52:58.937Z,8.30
2019-05-20T16:55:29.837Z,8.53
2019-05-20T16:58:00.241Z,8.53
2019-05-20T17:00:32.294Z,9.47
2019-05-20T17:03:03.135Z,9.40
2019-05-20T17:05:33.943Z,9.87
2019-05-20T17:08:04.310Z,10.80
2019-05-20T17:10:34.707Z,11.00
2019-05-20T17:13:05.448Z,10.57
2019-05-20T17:15:36.082Z,12.57
2019-05-20T17:18:06.484Z,12.83
2019-05-20T17:20:37.017Z,11.50
2019-05-20T17:23:07.761Z,14.57
2019-05-20T17:25:38.431Z,12.70
2019-05-20T17:28:09.135Z,13.80
2019-05-20T17:30:45.597Z,12.67
2019-05-20T17:33:12.192Z,13.87
2019-05-20T17:35:42.638Z,13.43
2019-05-20T17:38:13.091Z,15.17
2019-05-20T17:40:43.874Z,14.70
2019-05-20T17:43:14.787Z,14.63
2019-05-20T17:45:45.204Z,15.00
2019-05-20T17:48:15.578Z,13.83
2019-05-20T17:50:46.011Z,13.10
2019-05-20T17:53:16.379Z,14.80
2019-05-20T17:55:46.804Z,14.33
2019-05-20T17:58:17.174Z,15.70
2019-05-20T18:00:47.845Z,18.03
2019-05-20T18:03:18.483Z,17.77
2019-05-20T18:05:48.873Z,19.60
2019-05-20T18:08:19.419Z,18.97
2019-05-20T18:10:49.840Z,17.33
2019-05-20T18:13:20.174Z,19.20
2019-05-20T18:15:50.571Z,17.43
2019-05-20T18:18:20.979Z,16.50
2019-05-20T18:20:51.380Z,16.90
2019-05-20T18:23:21.717Z,18.23
2019-05-20T18:25:52.867Z,19.00
2019-05-20T18:28:23.380Z,18.37
2019-05-20T18:30:54.092Z,19.97
2019-05-20T18:33:25.168Z,18.97
2019-05-20T18:35:55.805Z,20.63
2019-05-20T18:38:26.188Z,19.70
2019-05-20T18:40:56.627Z,20.63
2019-05-20T18:43:27.320Z,20.40
2019-05-20T18:45:57.708Z,19.50
2019-05-20T18:48:28.077Z,22.10
2019-05-20T18:50:58.473Z,20.43
2019-05-20T18:53:28.808Z,21.20
2019-05-20T18:55:59.467Z,20.87
2019-05-20T18:58:29.974Z,22.03
2019-05-20T19:01:01.037Z,21.37
2019-05-20T19:03:31.871Z,21.80
2019-05-20T19:06:03.162Z,21.63
2019-05-20T19:08:33.518Z,21.97
2019-05-20T19:11:03.876Z,21.17
2019-05-20T19:13:34.582Z,19.80
2019-05-20T19:16:04.962Z,21.10
2019-05-20T19:18:35.320Z,18.80
2019-05-20T19:21:05.701Z,18.63
2019-05-20T19:23:36.042Z,16.70
2019-05-20T19:26:06.855Z,18.70
2019-05-20T19:28:37.280Z,16.80
2019-05-20T19:31:08.200Z,17.77
2019-05-20T19:33:38.687Z,18.13
2019-05-20T19:36:09.313Z,19.33
2019-05-20T19:38:39.704Z,19.60
2019-05-20T19:41:10.257Z,18.03
2019-05-20T19:43:40.595Z,16.10
2019-05-20T19:46:11.063Z,16.30
2019-05-20T19:48:41.400Z,15.67
2019-05-20T19:51:11.787Z,17.03
2019-05-20T19:53:42.497Z,17.23
2019-05-20T19:56:12.843Z,14.93
2019-05-20T19:58:43.214Z,15.87
2019-05-20T20:01:13.546Z,16.67
2019-05-20T20:03:44.004Z,15.80
2019-05-20T20:06:15.024Z,16.33
2019-05-20T20:08:45.717Z,12.80
2019-05-20T20:11:16.052Z,14.37
2019-05-20T20:13:46.694Z,13.70
2019-05-20T20:16:18.065Z,13.67
2019-05-20T20:18:48.784Z,12.93
2019-05-20T20:21:21.626Z,14.57
2019-05-20T20:23:52.324Z,15.17
2019-05-20T20:26:23.050Z,16.13
2019-05-20T20:28:53.449Z,15.00
2019-05-20T20:31:24.467Z,15.87
2019-05-20T20:33:55.165Z,15.10
2019-05-20T20:36:25.858Z,16.03
2019-05-20T20:38:56.310Z,15.17
2019-05-20T20:41:27.050Z,16.27
2019-05-20T20:44:17.262Z,15.23
2019-05-20T20:46:47.616Z,15.10
2019-05-20T20:49:18.099Z,15.00
2019-05-20T20:51:48.472Z,13.40
2019-05-20T20:54:18.910Z,15.37
2019-05-20T20:56:49.274Z,15.83
2019-05-20T20:59:19.660Z,14.70
2019-05-20T21:01:50.042Z,14.23
2019-05-20T21:04:20.534Z,15.30
2019-05-20T21:06:50.907Z,15.23
2019-05-20T21:09:21.246Z,15.50
2019-05-20T21:11:52.972Z,14.87
2019-05-20T21:14:23.726Z,16.50
2019-05-20T21:16:54.497Z,15.77
2019-05-20T21:19:24.879Z,14.97
2019-05-20T21:21:55.874Z,15.63
2019-05-20T21:24:26.240Z,16.20
2019-05-20T21:26:56.883Z,16.00
2019-05-20T21:29:35.105Z,17.33
2019-05-20T21:32:05.628Z,17.07
2019-05-20T21:34:36.144Z,16.03
2019-05-20T21:37:06.530Z,16.37
2019-05-20T21:39:37.262Z,15.63
2019-05-20T21:42:07.939Z,16.53
2019-05-20T21:44:38.285Z,17.30
2019-05-20T21:47:08.999Z,18.20
2019-05-20T21:49:39.792Z,18.87
2019-05-20T21:52:10.131Z,15.47
2019-05-20T21:54:40.515Z,16.00
2019-05-20T21:57:10.894Z,17.57
2019-05-20T21:59:41.259Z,16.77
2019-05-20T22:02:12.026Z,17.57
2019-05-20T22:04:43.020Z,16.77
2019-05-20T22:07:13.732Z,18.80
2019-05-20T22:09:44.505Z,17.67
2019-05-20T22:12:14.912Z,20.27
2019-05-20T22:14:45.265Z,18.10
2019-05-20T22:17:15.641Z,17.07
2019-05-20T22:19:45.984Z,18.27
2019-05-20T22:22:25.032Z,20.37
2019-05-20T22:24:55.738Z,19.40
2019-05-20T22:27:26.402Z,19.17
2019-05-20T22:29:56.957Z,18.27
2019-05-20T22:32:27.791Z,20.80
2019-05-20T22:34:58.133Z,21.10
2019-05-20T22:37:28.642Z,22.10
2019-05-20T22:39:59.253Z,23.90
2019-05-20T22:42:29.591Z,21.03
2019-05-20T22:45:00.259Z,23.10
2019-05-20T22:47:30.648Z,22.63
2019-05-20T22:50:01.053Z,22.70
2019-05-20T22:52:31.751Z,22.60
2019-05-20T22:55:02.441Z,21.40
2019-05-20T22:57:32.815Z,20.97
2019-05-20T23:00:03.483Z,21.83
2019-05-20T23:02:33.854Z,21.97
2019-05-20T23:05:04.807Z,21.90
2019-05-20T23:07:35.259Z,21.80
2019-05-20T23:10:08.097Z,21.20
2019-05-20T23:12:38.461Z,21.53
2019-05-20T23:15:08.847Z,23.10
2019-05-20T23:17:39.229Z,23.10
2019-05-20T23:20:10.330Z,21.50
2019-05-20T23:22:40.753Z,22.97
2019-05-20T23:25:11.408Z,22.20
2019-05-20T23:27:41.788Z,22.30
2019-05-20T23:30:12.978Z,22.73
2019-05-20T23:32:43.539Z,21.70
2019-05-20T23:35:13.907Z,23.27
2019-05-20T23:37:44.251Z,23.23
2019-05-20T23:40:34.439Z,26.10
2019-05-20T23:43:04.822Z,24.47
2019-05-20T23:45:35.540Z,25.83
2019-05-20T23:48:05.904Z,24.97
2019-05-20T23:50:36.676Z,24.77
2019-05-20T23:53:07.047Z,24.40
2019-05-20T23:55:37.387Z,23.80
2019-05-20T23:58:07.841Z,23.97
